Time;durP1;ratioP1;P1;durP2;ratioP2;P2;SDS_P1;SDS_P2;PMS_P1;PMS_P2;Temp;Humidity;BMP_temperature;BMP_pressure;BME280_temperature;BME280_humidity;BME280_pressure;Samples;Min_cycle;Max_cycle;Signal;HPM_P1;HPM_P2
2022/11/08 00:03:53;;;;;;;16.27;9.88;;;8.30;68.70;;;;;;5966681;23;114849;-79
2022/11/08 00:14:39;;;;;;;14.15;9.85;;;8.30;68.80;;;;;;5967304;23;115037;-80
2022/11/08 00:17:06;;;;;;;16.60;10.88;;;8.20;68.90;;;;;;5942973;23;115436;-79
2022/11/08 00:19:32;;;;;;;16.38;10.32;;;8.20;68.90;;;;;;5966618;23;114248;-80
2022/11/08 00:21:59;;;;;;;16.08;10.27;;;8.20;69.00;;;;;;5967186;23;114324;-80
2022/11/08 00:24:26;;;;;;;17.10;10.98;;;8.20;69.00;;;;;;5941805;23;114866;-80
2022/11/08 00:26:54;;;;;;;18.88;11.30;;;8.20;69.00;;;;;;5966060;23;114714;-80
2022/11/08 00:29:20;;;;;;;15.68;10.07;;;8.20;68.90;;;;;;5968584;23;114221;-80
2022/11/08 00:31:47;;;;;;;19.10;10.68;;;8.20;69.10;;;;;;5968059;23;114475;-80
2022/11/08 00:34:14;;;;;;;17.73;11.80;;;8.20;69.00;;;;;;5967278;23;115152;-80
2022/11/08 00:36:41;;;;;;;17.50;11.13;;;8.30;69.00;;;;;;5967296;23;114615;-80
2022/11/08 00:39:09;;;;;;;17.58;10.82;;;8.30;69.10;;;;;;5967083;23;114326;-80
2022/11/08 00:41:36;;;;;;;14.82;10.82;;;8.30;69.10;;;;;;5968698;23;114048;-80
2022/11/08 00:44:03;;;;;;;14.57;10.27;;;8.30;69.10;;;;;;5967198;23;114824;-79
2022/11/08 00:46:30;;;;;;;16.70;10.65;;;8.20;69.00;;;;;;5967284;23;114634;-81
2022/11/08 00:48:57;;;;;;;16.65;10.75;;;8.20;69.10;;;;;;5966233;23;114222;-80
2022/11/08 00:51:24;;;;;;;16.30;11.07;;;8.30;69.20;;;;;;5966511;23;114176;-80
2022/11/08 00:53:51;;;;;;;18.77;11.85;;;8.20;69.30;;;;;;5942163;23;115128;-80
2022/11/08 00:56:18;;;;;;;16.13;11.82;;;8.20;69.30;;;;;;5966840;23;115092;-80
2022/11/08 00:58:45;;;;;;;17.00;11.40;;;8.20;69.40;;;;;;5966413;23;114491;-81
2022/11/08 01:01:14;;;;;;;16.77;11.40;;;8.20;69.40;;;;;;5919212;23;114360;-79
2022/11/08 01:03:41;;;;;;;20.80;12.13;;;8.20;69.50;;;;;;5966392;23;115431;-80
2022/11/08 01:06:09;;;;;;;17.85;11.77;;;8.20;69.60;;;;;;5970003;23;114619;-80
2022/11/08 01:08:36;;;;;;;18.27;11.93;;;8.20;69.70;;;;;;5943429;23;114706;-80
2022/11/08 01:11:05;;;;;;;20.58;12.82;;;8.20;69.70;;;;;;5967951;23;114313;-81
2022/11/08 01:13:32;;;;;;;21.00;12.05;;;8.20;69.90;;;;;;5941731;23;115683;-80
2022/11/08 01:16:05;;;;;;;20.33;13.95;;;8.20;69.90;;;;;;5967079;23;115784;-80
2022/11/08 01:18:32;;;;;;;18.13;12.83;;;8.30;69.90;;;;;;5943134;23;114306;-80
2022/11/08 01:21:01;;;;;;;21.08;13.05;;;8.20;69.90;;;;;;5966687;23;114181;-80
2022/11/08 01:23:28;;;;;;;18.27;12.27;;;8.20;70.00;;;;;;5965533;23;114916;-80
2022/11/08 01:25:55;;;;;;;18.63;12.68;;;8.20;69.90;;;;;;5942094;23;114597;-80
2022/11/08 01:28:22;;;;;;;18.98;12.77;;;8.30;69.90;;;;;;5966347;23;114173;-80
2022/11/08 01:30:49;;;;;;;20.90;12.60;;;8.30;69.80;;;;;;5967149;23;114653;-79
2022/11/08 01:33:16;;;;;;;21.23;13.93;;;8.30;69.90;;;;;;5941578;23;114826;-79
2022/11/08 01:35:44;;;;;;;18.45;13.20;;;8.20;69.90;;;;;;5942112;23;114564;-79
2022/11/08 01:38:11;;;;;;;22.88;14.10;;;8.20;70.00;;;;;;5942289;23;114243;-80
2022/11/08 01:40:45;;;;;;;18.48;13.25;;;8.20;70.00;;;;;;5942226;23;114269;-80
2022/11/08 01:43:25;;;;;;;19.17;13.50;;;8.30;70.00;;;;;;5964742;23;115430;-80
2022/11/08 01:46:19;;;;;;;19.55;13.25;;;8.30;70.00;;;;;;5966377;23;114652;-80
2022/11/08 01:49:13;;;;;;;20.60;13.80;;;8.20;70.00;;;;;;5967538;23;114498;-80
2022/11/08 01:51:51;;;;;;;23.05;13.85;;;8.20;70.10;;;;;;5942366;23;114508;-80
2022/11/08 01:54:29;;;;;;;21.92;13.93;;;8.20;70.30;;;;;;5941455;23;114839;-80
2022/11/08 01:56:55;;;;;;;18.80;13.63;;;8.10;70.30;;;;;;5964950;23;114570;-80
2022/11/08 01:59:22;;;;;;;20.88;12.73;;;8.10;70.30;;;;;;5967190;23;114261;-80
2022/11/08 02:01:53;;;;;;;18.65;13.25;;;8.10;70.30;;;;;;5965869;23;114601;-80
2022/11/08 02:04:23;;;;;;;21.83;13.88;;;8.10;70.30;;;;;;5964430;23;115402;-79
2022/11/08 02:06:50;;;;;;;22.63;13.18;;;8.10;70.30;;;;;;5941284;23;114724;-80
2022/11/08 02:09:18;;;;;;;21.55;14.23;;;8.10;70.40;;;;;;5942169;23;114519;-80
2022/11/08 02:11:45;;;;;;;20.70;13.15;;;8.10;70.50;;;;;;5967394;23;114444;-81
2022/11/08 02:14:12;;;;;;;17.25;11.93;;;8.10;70.60;;;;;;5964603;23;116091;-81
2022/11/08 02:16:39;;;;;;;20.00;13.27;;;8.20;70.60;;;;;;5941208;23;114755;-80
2022/11/08 02:19:11;;;;;;;18.75;12.48;;;8.20;70.40;;;;;;5967468;23;114652;-81
2022/11/08 02:21:57;;;;;;;17.88;12.20;;;8.20;70.40;;;;;;5943187;23;114308;-81
2022/11/08 02:24:24;;;;;;;20.98;13.18;;;8.20;70.50;;;;;;5964935;23;114863;-79
2022/11/08 02:26:51;;;;;;;19.70;12.95;;;8.20;70.30;;;;;;5966332;23;114550;-80
2022/11/08 02:29:30;;;;;;;21.25;13.18;;;8.20;70.30;;;;;;5941693;23;114186;-80
2022/11/08 02:31:57;;;;;;;17.85;11.65;;;8.20;70.40;;;;;;5965747;23;114362;-79
2022/11/08 02:34:55;;;;;;;18.77;12.93;;;8.20;70.40;;;;;;5965241;23;115301;-80
2022/11/08 02:37:22;;;;;;;18.08;12.48;;;8.30;70.20;;;;;;5939194;23;114526;-80
2022/11/08 02:39:49;;;;;;;17.48;12.50;;;8.20;70.40;;;;;;5919808;23;114433;-80
2022/11/08 02:42:17;;;;;;;17.10;12.02;;;8.30;70.40;;;;;;5967906;23;114162;-80
2022/11/08 02:44:45;;;;;;;19.60;13.60;;;8.30;70.50;;;;;;5965136;23;114918;-79
2022/11/08 02:47:12;;;;;;;17.20;12.55;;;8.30;70.30;;;;;;5965663;23;114908;-80
2022/11/08 02:49:39;;;;;;;17.48;12.02;;;8.40;70.20;;;;;;5942869;23;114203;-80
2022/11/08 02:52:06;;;;;;;18.70;12.25;;;8.40;70.10;;;;;;5942819;23;114439;-80
2022/11/08 02:54:33;;;;;;;16.40;11.45;;;8.40;70.00;;;;;;5964645;23;115238;-81
2022/11/08 02:57:00;;;;;;;17.95;11.85;;;8.40;70.30;;;;;;5965053;23;115688;-81
2022/11/08 02:59:27;;;;;;;18.38;12.25;;;8.40;70.10;;;;;;5965905;23;114225;-80
2022/11/08 03:01:55;;;;;;;20.55;12.73;;;8.30;70.00;;;;;;5967255;23;114269;-79
2022/11/08 03:04:23;;;;;;;16.88;11.70;;;8.30;70.10;;;;;;5945660;23;114926;-80
2022/11/08 03:06:49;;;;;;;19.42;11.90;;;8.30;70.00;;;;;;5967133;23;115716;-81
2022/11/08 03:09:16;;;;;;;18.15;12.20;;;8.30;70.00;;;;;;5943289;23;114145;-81
2022/11/08 03:11:43;;;;;;;16.65;11.35;;;8.30;70.10;;;;;;5968207;23;114102;-80
2022/11/08 03:14:11;;;;;;;17.85;11.63;;;8.30;70.10;;;;;;5967061;23;114882;-80
2022/11/08 03:16:37;;;;;;;17.55;12.40;;;8.30;70.00;;;;;;5966874;23;114527;-80
2022/11/08 03:19:04;;;;;;;17.25;11.27;;;8.30;70.00;;;;;;5967421;23;114298;-80
2022/11/08 03:21:34;;;;;;;17.70;11.05;;;8.30;70.00;;;;;;5942395;23;114213;-80
2022/11/08 03:24:01;;;;;;;16.80;11.18;;;8.30;70.00;;;;;;5941544;23;115924;-80
2022/11/08 03:26:28;;;;;;;15.48;11.07;;;8.30;70.10;;;;;;5965446;23;114738;-79
2022/11/08 03:28:55;;;;;;;15.52;10.32;;;8.30;70.10;;;;;;5967785;23;114154;-80
2022/11/08 03:31:22;;;;;;;17.08;11.15;;;8.30;70.10;;;;;;5968026;23;114246;-80
2022/11/08 03:33:49;;;;;;;17.13;11.23;;;8.30;70.10;;;;;;5965889;23;114769;-80
2022/11/08 03:36:16;;;;;;;16.60;10.95;;;8.30;70.10;;;;;;5942092;23;114533;-80
2022/11/08 03:38:43;;;;;;;17.40;11.25;;;8.30;70.10;;;;;;5967556;23;114169;-80
2022/11/08 03:41:10;;;;;;;15.75;10.32;;;8.30;70.10;;;;;;5967792;23;114067;-81
2022/11/08 03:43:37;;;;;;;14.55;10.38;;;8.30;70.10;;;;;;5964674;23;114986;-80
2022/11/08 03:46:04;;;;;;;15.05;10.18;;;8.30;70.10;;;;;;5965149;23;114630;-81
2022/11/08 03:48:31;;;;;;;13.77;9.98;;;8.30;70.10;;;;;;5968152;23;114431;-81
2022/11/08 03:50:58;;;;;;;16.33;11.20;;;8.30;70.10;;;;;;5966491;23;114457;-81
2022/11/08 03:53:24;;;;;;;15.68;10.18;;;8.40;70.10;;;;;;5941385;23;114794;-80
2022/11/08 03:55:51;;;;;;;15.65;10.73;;;8.30;70.00;;;;;;5969996;23;114635;-81
2022/11/08 03:58:18;;;;;;;14.35;10.18;;;8.30;70.00;;;;;;5967816;23;114225;-80
2022/11/08 04:00:46;;;;;;;15.50;10.65;;;8.40;70.00;;;;;;5968014;23;114267;-80
2022/11/08 04:03:13;;;;;;;18.65;10.32;;;8.40;69.90;;;;;;5966194;23;114912;-81
2022/11/08 04:05:43;;;;;;;15.80;10.70;;;8.40;69.90;;;;;;5966335;23;115100;-80
2022/11/08 04:08:10;;;;;;;16.65;11.10;;;8.40;69.80;;;;;;5966725;23;114212;-81
2022/11/08 04:10:36;;;;;;;16.08;10.27;;;8.40;69.90;;;;;;5967008;23;114112;-79
2022/11/08 04:15:55;;;;;;;16.52;10.10;;;8.40;69.80;;;;;;5964043;23;115115;-80
2022/11/08 04:21:20;;;;;;;14.18;9.95;;;8.40;69.80;;;;;;5966604;23;114309;-79
2022/11/08 04:23:48;;;;;;;16.13;9.75;;;8.40;69.90;;;;;;5940771;23;114887;-80
2022/11/08 04:26:15;;;;;;;18.02;10.38;;;8.40;69.90;;;;;;5964760;23;114701;-80
2022/11/08 04:28:42;;;;;;;15.10;10.23;;;8.40;69.80;;;;;;5965601;23;114500;-80
2022/11/08 04:31:14;;;;;;;15.13;9.98;;;8.40;69.70;;;;;;5967377;23;114258;-80
2022/11/08 04:33:43;;;;;;;15.00;10.15;;;8.40;69.70;;;;;;5964875;23;114892;-80
2022/11/08 04:36:12;;;;;;;15.50;10.02;;;8.40;69.70;;;;;;5967102;23;114576;-79
2022/11/08 04:38:39;;;;;;;14.63;10.15;;;8.40;69.70;;;;;;5966884;23;114128;-80
2022/11/08 04:41:12;;;;;;;12.77;8.93;;;8.30;69.60;;;;;;5943338;23;114557;-79
2022/11/08 04:43:39;;;;;;;13.93;9.20;;;8.20;69.60;;;;;;5965608;23;114864;-80
2022/11/08 04:46:08;;;;;;;14.85;9.52;;;8.20;69.70;;;;;;5942133;23;114676;-80
2022/11/08 04:48:35;;;;;;;16.73;10.38;;;8.20;69.80;;;;;;5943488;23;114365;-80
2022/11/08 04:51:03;;;;;;;16.98;10.57;;;8.20;69.80;;;;;;5968867;23;114061;-80
2022/11/08 04:53:30;;;;;;;16.13;9.57;;;8.20;69.80;;;;;;5941785;23;115015;-80
2022/11/08 04:56:05;;;;;;;14.48;10.98;;;8.20;69.90;;;;;;5965823;23;114553;-80
2022/11/08 04:58:36;;;;;;;15.32;9.55;;;8.20;70.00;;;;;;5965559;23;115146;-80
2022/11/08 05:01:04;;;;;;;14.57;10.43;;;8.20;69.90;;;;;;5943358;23;114453;-79
2022/11/08 05:03:32;;;;;;;16.58;10.45;;;8.20;69.90;;;;;;5969416;23;114897;-80
2022/11/08 05:06:03;;;;;;;15.20;10.15;;;8.20;69.80;;;;;;5966798;23;114746;-80
2022/11/08 05:08:30;;;;;;;16.02;9.88;;;8.20;69.80;;;;;;5966599;23;114322;-79
2022/11/08 05:11:12;;;;;;;15.73;9.80;;;8.20;69.90;;;;;;5968351;23;113959;-81
2022/11/08 05:13:39;;;;;;;15.63;9.55;;;8.20;69.80;;;;;;5965553;23;116801;-80
2022/11/08 05:16:17;;;;;;;14.82;9.07;;;8.20;69.80;;;;;;5966131;23;114537;-80
2022/11/08 05:18:44;;;;;;;16.42;9.60;;;8.20;69.80;;;;;;5966692;23;114391;-81
2022/11/08 05:23:58;;;;;;;13.48;9.38;;;8.20;69.80;;;;;;5966864;23;114818;-79
2022/11/08 05:26:25;;;;;;;12.63;8.43;;;8.20;69.80;;;;;;5967607;23;114580;-81
2022/11/08 05:28:52;;;;;;;13.68;10.05;;;8.20;69.80;;;;;;5966604;23;114341;-80
2022/11/08 05:31:19;;;;;;;14.20;9.80;;;8.20;69.80;;;;;;5966604;23;114869;-80
2022/11/08 05:33:47;;;;;;;15.50;10.40;;;8.20;69.60;;;;;;5966540;23;114922;-80
2022/11/08 05:36:15;;;;;;;13.55;9.30;;;8.20;69.70;;;;;;5967058;23;114637;-80
2022/11/08 05:38:42;;;;;;;14.88;9.27;;;8.20;69.70;;;;;;5966379;23;114325;-80
2022/11/08 05:41:10;;;;;;;14.90;9.90;;;8.20;69.80;;;;;;5896624;23;114478;-81
2022/11/08 05:43:37;;;;;;;15.25;9.50;;;8.20;69.70;;;;;;5966859;23;116222;-80
2022/11/08 05:46:04;;;;;;;14.07;9.40;;;8.20;69.60;;;;;;5965140;23;114616;-80
2022/11/08 05:48:31;;;;;;;14.23;10.00;;;8.20;69.60;;;;;;5967404;23;114373;-81
2022/11/08 05:50:58;;;;;;;14.75;9.65;;;8.20;69.50;;;;;;5968140;23;114390;-81
2022/11/08 05:53:25;;;;;;;14.70;9.98;;;8.20;69.50;;;;;;5967137;23;114432;-79
2022/11/08 05:55:57;;;;;;;16.38;10.20;;;8.20;69.40;;;;;;5965176;23;114541;-80
2022/11/08 05:58:28;;;;;;;16.10;10.50;;;8.10;69.40;;;;;;5967745;23;114236;-80
2022/11/08 06:01:03;;;;;;;16.83;10.77;;;8.20;69.50;;;;;;5966360;23;114428;-80
2022/11/08 06:03:30;;;;;;;17.23;10.35;;;8.20;69.50;;;;;;5965440;23;115003;-83
2022/11/08 06:06:18;;;;;;;14.38;9.50;;;8.10;69.50;;;;;;5965889;23;114557;-80
2022/11/08 06:08:45;;;;;;;17.20;11.27;;;8.20;69.40;;;;;;5966584;23;114388;-81
2022/11/08 06:11:21;;;;;;;15.65;10.73;;;8.10;69.50;;;;;;5968163;23;114267;-82
2022/11/08 06:13:49;;;;;;;13.75;9.38;;;8.20;69.70;;;;;;5917843;23;114981;-80
2022/11/08 06:16:16;;;;;;;14.75;10.57;;;8.10;69.60;;;;;;5966092;23;114788;-81
2022/11/08 06:18:43;;;;;;;17.33;10.10;;;8.20;69.50;;;;;;5944572;23;114407;-81
2022/11/08 06:21:14;;;;;;;15.02;9.57;;;8.20;69.40;;;;;;5968141;23;114042;-81
2022/11/08 06:23:41;;;;;;;13.95;8.98;;;8.20;69.30;;;;;;5966442;23;114793;-81
2022/11/08 06:26:08;;;;;;;14.77;10.60;;;8.20;69.30;;;;;;5966388;23;117415;-81
2022/11/08 06:28:35;;;;;;;15.05;9.57;;;8.30;69.20;;;;;;5967662;23;114309;-81
2022/11/08 06:31:03;;;;;;;15.05;9.27;;;8.40;69.20;;;;;;5943857;23;114445;-81
2022/11/08 06:33:30;;;;;;;14.40;9.35;;;8.50;69.00;;;;;;5964416;23;115014;-81
2022/11/08 06:35:58;;;;;;;13.02;9.88;;;8.60;68.90;;;;;;5967243;23;114797;-81
2022/11/08 06:38:25;;;;;;;14.57;8.75;;;8.60;68.80;;;;;;5965731;23;114103;-81
2022/11/08 06:40:53;;;;;;;15.05;9.32;;;8.70;68.70;;;;;;5966621;23;114582;-81
2022/11/08 06:43:20;;;;;;;15.57;9.70;;;8.80;68.50;;;;;;5966844;23;115840;-81
2022/11/08 06:45:47;;;;;;;13.93;8.80;;;8.80;68.30;;;;;;5940844;23;114564;-81
2022/11/08 06:48:14;;;;;;;14.77;9.40;;;8.90;68.10;;;;;;5941475;23;114313;-80
2022/11/08 06:50:41;;;;;;;14.93;9.38;;;9.00;68.00;;;;;;5942258;23;114343;-81
2022/11/08 06:53:11;;;;;;;13.35;8.77;;;9.20;67.80;;;;;;5964325;23;114983;-81
2022/11/08 06:55:38;;;;;;;14.73;9.43;;;9.30;67.60;;;;;;5917200;23;114667;-81
2022/11/08 06:58:04;;;;;;;13.57;8.32;;;9.40;67.20;;;;;;5966454;23;114345;-81
2022/11/08 07:00:31;;;;;;;14.95;8.23;;;9.60;67.00;;;;;;5969584;23;114435;-80
2022/11/08 07:03:00;;;;;;;13.45;8.70;;;9.70;66.60;;;;;;5965391;23;114414;-81
2022/11/08 07:05:28;;;;;;;12.77;8.60;;;9.80;66.30;;;;;;5964524;23;114641;-81
2022/11/08 07:07:58;;;;;;;12.38;8.60;;;9.90;65.90;;;;;;5942747;23;115348;-81
2022/11/08 07:10:27;;;;;;;12.07;7.32;;;10.00;65.50;;;;;;5966713;23;114210;-81
2022/11/08 07:13:05;;;;;;;11.40;7.70;;;10.10;65.20;;;;;;5965418;23;115211;-81
2022/11/08 07:15:32;;;;;;;13.32;7.85;;;10.20;64.90;;;;;;5941491;23;114673;-80
2022/11/08 07:18:04;;;;;;;14.45;7.75;;;10.30;64.90;;;;;;5942625;23;114429;-82
2022/11/08 07:20:31;;;;;;;13.02;7.85;;;10.40;64.60;;;;;;5966461;23;114956;-80
2022/11/08 07:22:58;;;;;;;15.98;8.50;;;10.40;64.30;;;;;;5966634;23;114834;-81
2022/11/08 07:25:26;;;;;;;12.32;9.02;;;10.50;64.10;;;;;;5964786;23;114699;-80
2022/11/08 07:27:57;;;;;;;11.65;8.15;;;10.60;63.90;;;;;;5966993;23;114070;-81
2022/11/08 07:30:24;;;;;;;12.38;7.70;;;10.70;63.00;;;;;;5966134;23;114134;-81
2022/11/08 07:32:51;;;;;;;12.82;7.68;;;10.70;63.30;;;;;;5966145;23;114799;-81
2022/11/08 07:35:18;;;;;;;11.43;7.20;;;10.70;63.10;;;;;;5964547;23;115876;-81
2022/11/08 07:37:45;;;;;;;12.73;7.43;;;10.80;62.90;;;;;;5967561;23;114303;-81
2022/11/08 07:40:12;;;;;;;12.63;7.30;;;10.80;62.80;;;;;;5965880;23;114150;-81
2022/11/08 07:42:39;;;;;;;12.52;7.75;;;10.90;62.40;;;;;;5966231;23;114875;-81
2022/11/08 07:45:26;;;;;;;13.85;7.15;;;10.90;62.50;;;;;;5966282;23;114606;-81
2022/11/08 07:48:01;;;;;;;16.60;8.05;;;10.90;62.30;;;;;;5942200;23;114305;-81
2022/11/08 07:50:36;;;;;;;11.60;7.30;;;11.00;62.10;;;;;;5944031;23;114371;-82
2022/11/08 07:53:03;;;;;;;12.18;7.63;;;11.00;62.00;;;;;;5964113;23;114872;-81
2022/11/08 07:55:30;;;;;;;12.85;7.85;;;11.10;62.30;;;;;;5966270;23;114509;-81
2022/11/08 07:58:00;;;;;;;12.25;7.68;;;11.20;62.50;;;;;;5966908;23;114183;-81
2022/11/08 08:00:38;;;;;;;9.57;6.32;;;11.30;61.70;;;;;;5967287;23;114200;-81
2022/11/08 08:03:06;;;;;;;14.07;7.10;;;11.30;61.50;;;;;;5941004;23;115909;-81
2022/11/08 08:05:35;;;;;;;11.95;7.68;;;11.30;61.10;;;;;;5966392;23;114589;-81
2022/11/08 08:08:02;;;;;;;11.25;7.53;;;11.30;61.20;;;;;;5968184;23;114111;-82
2022/11/08 08:10:29;;;;;;;12.55;7.53;;;11.30;61.10;;;;;;5938461;23;114397;-82
2022/11/08 08:13:09;;;;;;;9.57;6.45;;;11.40;60.90;;;;;;5967327;23;115489;-82
2022/11/08 08:16:10;;;;;;;10.02;6.45;;;11.50;60.50;;;;;;5966707;23;114624;-81
2022/11/08 08:18:59;;;;;;;9.98;5.82;;;11.40;60.70;;;;;;5966963;23;114175;-83
2022/11/08 08:21:46;;;;;;;10.73;5.97;;;11.50;61.00;;;;;;5967386;23;114371;-82
2022/11/08 08:24:14;;;;;;;9.25;5.70;;;11.60;60.70;;;;;;5965349;23;114829;-81
2022/11/08 08:26:54;;;;;;;8.50;5.82;;;11.70;60.70;;;;;;5967204;23;114802;-82
2022/11/08 08:29:49;;;;;;;8.55;5.50;;;11.80;60.20;;;;;;5967979;23;114136;-81
2022/11/08 08:32:16;;;;;;;;;;;11.80;60.00;;;;;;5968755;23;114265;-82
2022/11/08 08:34:56;;;;;;;10.73;6.15;;;11.80;61.10;;;;;;5967107;23;114632;-81
2022/11/08 08:37:44;;;;;;;8.82;5.75;;;11.90;60.30;;;;;;5967638;23;114591;-81
2022/11/08 08:40:11;;;;;;;9.32;6.80;;;12.00;59.60;;;;;;5966959;23;114493;-81
2022/11/08 08:42:38;;;;;;;8.77;6.07;;;12.10;59.70;;;;;;5968517;23;113994;-81
2022/11/08 08:45:05;;;;;;;11.02;6.15;;;12.10;59.60;;;;;;5967059;23;114828;-81
2022/11/08 08:47:40;;;;;;;10.75;6.53;;;12.20;59.50;;;;;;5967881;23;114529;-81
2022/11/08 08:50:07;;;;;;;10.50;6.30;;;12.20;59.20;;;;;;5968936;23;114332;-81
2022/11/08 08:52:34;;;;;;;9.98;6.53;;;12.30;58.80;;;;;;5967420;23;114321;-82
2022/11/08 08:55:01;;;;;;;8.68;5.60;;;12.30;59.00;;;;;;5965639;23;114900;-81
2022/11/08 08:57:28;;;;;;;8.00;5.03;;;12.30;58.70;;;;;;5940958;23;116004;-80
2022/11/08 08:59:56;;;;;;;9.73;5.57;;;12.30;58.60;;;;;;5968677;23;114303;-81
2022/11/08 09:02:43;;;;;;;12.32;6.43;;;12.30;58.60;;;;;;5949633;23;114770;-80
2022/11/08 09:05:10;;;;;;;8.45;4.85;;;12.30;59.00;;;;;;5968380;23;114949;-81
2022/11/08 09:07:37;;;;;;;9.07;5.20;;;12.40;59.00;;;;;;5966476;23;114644;-80
2022/11/08 09:10:05;;;;;;;9.48;5.13;;;12.50;58.50;;;;;;5967837;23;115125;-80
2022/11/08 09:12:33;;;;;;;7.78;5.03;;;12.50;58.70;;;;;;5967963;23;114159;-80
2022/11/08 09:15:00;;;;;;;7.25;4.80;;;12.60;58.70;;;;;;5967108;23;114790;-81
2022/11/08 09:17:27;;;;;;;8.98;5.53;;;12.70;58.40;;;;;;5941388;23;115733;-82
2022/11/08 09:19:55;;;;;;;8.23;5.30;;;12.80;58.10;;;;;;5968106;23;114382;-80
2022/11/08 09:22:23;;;;;;;7.57;4.65;;;12.90;57.80;;;;;;5966791;23;114636;-80
2022/11/08 09:24:50;;;;;;;8.10;4.30;;;12.90;57.50;;;;;;5966839;23;115520;-80
2022/11/08 09:27:17;;;;;;;7.68;4.60;;;13.00;57.30;;;;;;5966111;23;115719;-81
2022/11/08 09:29:45;;;;;;;7.85;5.18;;;13.00;56.90;;;;;;5968085;23;114410;-81
2022/11/08 09:32:12;;;;;;;7.50;4.90;;;13.00;57.10;;;;;;5943054;23;114209;-80
2022/11/08 09:34:39;;;;;;;8.35;4.95;;;13.10;56.90;;;;;;5966176;23;115124;-81
2022/11/08 09:37:06;;;;;;;5.63;4.03;;;13.10;57.10;;;;;;5966618;23;114693;-80
2022/11/08 09:39:34;;;;;;;7.70;4.38;;;13.20;56.80;;;;;;5965803;23;114400;-80
2022/11/08 09:42:21;;;;;;;9.38;4.95;;;13.20;56.40;;;;;;5968088;23;114503;-80
2022/11/08 09:44:57;;;;;;;7.20;4.72;;;13.30;56.60;;;;;;5966642;23;116115;-81
2022/11/08 09:47:38;;;;;;;9.27;4.15;;;13.40;56.20;;;;;;5966936;23;114708;-82
2022/11/08 09:50:09;;;;;;;7.07;3.97;;;13.40;56.30;;;;;;5966399;23;114130;-81
2022/11/08 09:52:40;;;;;;;9.00;4.82;;;13.50;56.10;;;;;;5967919;23;115315;-82
2022/11/08 09:55:30;;;;;;;7.95;4.20;;;13.60;56.00;;;;;;5941960;23;114872;-81
2022/11/08 09:58:10;;;;;;;11.07;5.05;;;13.70;55.40;;;;;;5964699;23;114620;-81
2022/11/08 10:00:40;;;;;;;8.90;4.80;;;13.70;55.10;;;;;;5941825;23;114072;-81
2022/11/08 10:03:12;;;;;;;7.50;5.03;;;13.60;55.40;;;;;;5967799;23;114300;-81
2022/11/08 10:06:25;;;;;;;8.50;4.40;;;13.70;54.90;;;;;;5965004;23;114865;-81
2022/11/08 10:08:59;;;;;;;8.90;5.72;;;13.70;55.20;;;;;;5931654;23;116806;-80
2022/11/08 10:11:35;;;;;;;10.57;5.78;;;13.70;55.20;;;;;;5919421;23;114481;-81
2022/11/08 10:14:16;;;;;;;11.30;6.80;;;13.80;54.90;;;;;;5966663;23;114991;-81
2022/11/08 10:16:58;;;;;;;10.43;5.80;;;13.80;54.80;;;;;;5964956;23;115118;-81
2022/11/08 10:19:33;;;;;;;9.50;5.75;;;13.90;54.90;;;;;;5964934;23;114624;-81
2022/11/08 10:22:12;;;;;;;10.02;5.05;;;13.80;54.10;;;;;;5965700;23;115474;-82
2022/11/08 10:24:47;;;;;;;8.63;5.28;;;13.80;54.40;;;;;;5967817;23;115203;-81
2022/11/08 10:27:15;;;;;;;;;;;13.80;54.10;;;;;;5964826;23;115300;-80
2022/11/08 10:29:43;;;;;;;9.07;4.85;;;13.70;55.10;;;;;;5965798;23;114758;-81
2022/11/08 10:32:18;;;;;;;9.10;5.05;;;13.70;54.60;;;;;;5942736;23;114076;-81
2022/11/08 10:35:05;;;;;;;9.82;5.28;;;13.70;54.30;;;;;;5965911;23;114395;-81
2022/11/08 10:37:32;;;;;;;8.75;4.70;;;13.70;54.60;;;;;;5944572;23;114919;-81
2022/11/08 10:40:23;;;;;;;10.40;4.65;;;13.70;54.70;;;;;;5964711;23;114609;-81
2022/11/08 10:43:10;;;;;;;7.57;4.40;;;13.80;54.70;;;;;;5941795;23;114193;-81
2022/11/08 10:45:38;;;;;;;8.68;5.43;;;13.90;54.80;;;;;;5966411;23;114423;-81
2022/11/08 10:48:05;;;;;;;10.75;5.65;;;13.90;54.40;;;;;;5965668;23;115037;-81
2022/11/08 10:50:43;;;;;;;10.77;5.53;;;13.90;54.20;;;;;;5963863;23;115822;-81
2022/11/08 10:53:30;;;;;;;9.20;4.97;;;13.90;54.40;;;;;;5941935;23;114447;-81
2022/11/08 10:56:02;;;;;;;9.88;5.57;;;14.00;54.40;;;;;;5967093;23;115133;-80
2022/11/08 10:58:36;;;;;;;10.85;5.55;;;14.10;54.60;;;;;;5916125;23;118243;-81
2022/11/08 11:01:15;;;;;;;12.00;5.47;;;14.10;53.90;;;;;;5965954;23;114745;-81
2022/11/08 11:03:43;;;;;;;7.88;5.28;;;14.20;53.90;;;;;;5941701;23;114323;-80
2022/11/08 11:06:39;;;;;;;10.30;5.35;;;14.20;53.70;;;;;;5941949;23;114093;-80
2022/11/08 11:09:20;;;;;;;9.88;4.90;;;14.20;53.60;;;;;;5917520;23;115421;-81
2022/11/08 11:11:57;;;;;;;8.95;5.05;;;14.20;53.80;;;;;;5943609;23;114794;-80
2022/11/08 11:14:27;;;;;;;10.02;5.40;;;14.20;53.40;;;;;;5966706;23;114586;-83
2022/11/08 11:16:55;;;;;;;8.68;5.70;;;14.20;53.50;;;;;;5919114;23;114310;-80
2022/11/08 11:19:23;;;;;;;8.32;5.45;;;14.20;53.00;;;;;;5963947;23;114860;-80
2022/11/08 11:21:54;;;;;;;7.43;4.32;;;14.20;53.20;;;;;;5917899;23;114639;-80
2022/11/08 11:24:22;;;;;;;7.80;4.38;;;14.30;53.10;;;;;;5967308;23;114289;-81
2022/11/08 11:26:55;;;;;;;8.88;4.75;;;14.30;52.80;;;;;;5919017;23;114382;-81
2022/11/08 11:29:30;;;;;;;6.30;4.13;;;14.30;52.90;;;;;;5965804;23;114990;-81
2022/11/08 11:32:18;;;;;;;6.47;3.78;;;14.40;52.90;;;;;;5941415;23;114622;-81
2022/11/08 11:34:51;;;;;;;5.68;4.20;;;14.40;52.30;;;;;;5965711;23;114493;-80
2022/11/08 11:37:21;;;;;;;5.40;3.30;;;14.40;52.60;;;;;;5942174;23;114739;-81
2022/11/08 11:40:00;;;;;;;8.50;4.18;;;14.40;52.10;;;;;;5966098;23;114736;-81
2022/11/08 11:42:54;;;;;;;8.18;4.07;;;14.50;52.10;;;;;;5965607;23;116021;-81
2022/11/08 11:45:28;;;;;;;;;;;14.50;52.30;;;;;;5942213;23;114921;-81
2022/11/08 11:47:56;;;;;;;7.22;4.03;;;14.40;53.50;;;;;;5967490;23;114264;-81
2022/11/08 11:50:33;;;;;;;6.78;3.83;;;14.50;53.00;;;;;;5963905;23;114915;-81
2022/11/08 11:53:03;;;;;;;7.70;4.00;;;14.60;52.70;;;;;;5964344;23;114697;-81
2022/11/08 11:55:49;;;;;;;5.85;3.30;;;14.70;52.70;;;;;;5967230;23;114396;-81
2022/11/08 11:58:42;;;;;;;5.65;3.78;;;14.80;52.40;;;;;;5913740;23;114212;-80
2022/11/08 12:01:20;;;;;;;5.43;3.17;;;14.80;52.50;;;;;;5937902;23;114775;-80
2022/11/08 12:04:09;;;;;;;5.22;3.03;;;14.80;52.30;;;;;;5958662;23;114666;-81
2022/11/08 12:06:55;;;;;;;6.65;3.90;;;14.80;52.20;;;;;;5938403;23;114148;-81
2022/11/08 12:10:07;;;;;;;5.57;3.58;;;14.80;52.00;;;;;;5937959;23;114314;-81
2022/11/08 12:13:27;;;;;;;5.80;3.00;;;14.90;52.30;;;;;;5955740;23;114822;-81
2022/11/08 12:16:07;;;;;;;6.40;3.40;;;14.90;52.30;;;;;;5934940;23;114643;-80
2022/11/08 12:18:59;;;;;;;7.63;3.50;;;14.80;52.10;;;;;;5960314;23;114595;-81
2022/11/08 12:22:00;;;;;;;9.63;3.63;;;14.80;51.80;;;;;;5936722;23;114617;-81
2022/11/08 12:24:30;;;;;;;7.32;3.40;;;15.00;52.00;;;;;;5937649;23;114841;-81
2022/11/08 12:27:39;;;;;;;5.47;3.47;;;14.90;52.20;;;;;;5937709;23;114630;-82
2022/11/08 12:30:44;;;;;;;5.13;3.45;;;15.00;51.80;;;;;;5935843;23;114360;-81
2022/11/08 12:33:30;;;;;;;7.03;3.88;;;15.00;52.60;;;;;;5935839;23;114532;-81
2022/11/08 12:36:15;;;;;;;6.07;3.22;;;15.00;52.60;;;;;;5911621;23;114910;-81
2022/11/08 12:39:04;;;;;;;6.53;3.35;;;15.00;51.90;;;;;;5936518;23;114525;-81
2022/11/08 12:41:48;;;;;;;5.60;3.45;;;15.00;51.90;;;;;;5958684;23;114356;-80
2022/11/08 12:44:40;;;;;;;6.78;3.45;;;15.00;52.40;;;;;;5938581;23;114518;-81
2022/11/08 12:47:34;;;;;;;6.05;3.80;;;15.00;52.00;;;;;;5958872;23;114830;-81
2022/11/08 12:50:29;;;;;;;9.23;3.95;;;15.10;52.00;;;;;;5937448;23;114553;-81
2022/11/08 12:53:08;;;;;;;11.73;4.32;;;15.10;51.60;;;;;;5938683;23;114397;-80
2022/11/08 12:55:40;;;;;;;7.70;4.28;;;15.00;51.60;;;;;;5938820;23;114353;-81
2022/11/08 12:58:33;;;;;;;8.80;3.92;;;15.10;51.40;;;;;;5931333;23;114893;-80
2022/11/08 13:01:15;;;;;;;6.55;3.83;;;15.10;51.40;;;;;;5959553;23;114666;-80
2022/11/08 13:03:44;;;;;;;6.53;3.97;;;15.10;51.30;;;;;;5958502;23;114195;-81
2022/11/08 13:06:27;;;;;;;7.53;3.95;;;15.00;51.60;;;;;;5937673;23;115611;-81
2022/11/08 13:09:00;;;;;;;6.07;4.03;;;15.00;51.30;;;;;;5957351;23;115016;-81
2022/11/08 13:11:40;;;;;;;8.20;4.05;;;15.00;51.20;;;;;;5936491;23;115251;-80
2022/11/08 13:14:15;;;;;;;5.93;3.88;;;15.00;50.80;;;;;;5936723;23;114343;-81
2022/11/08 13:16:43;;;;;;;6.78;3.80;;;15.00;50.60;;;;;;5936731;23;114753;-81
2022/11/08 13:19:51;;;;;;;6.97;4.18;;;15.00;50.60;;;;;;5958287;23;114890;-81